Time;durP1;ratioP1;P1;durP2;ratioP2;P2;SDS_P1;SDS_P2;PMS_P1;PMS_P2;Temp;Humidity;BMP_temperature;BMP_pressure;BME280_temperature;BME280_humidity;BME280_pressure;Samples;Min_cycle;Max_cycle;Signal;HPM_P1;HPM_P2
2021/08/10 00:01:04;;;;;;;8.35;3.35;;;;;;;;;;5015204;28;20030;-77
2021/08/10 00:03:30;;;;;;;9.32;3.70;;;;;;;;;;5014956;28;20393;-76
2021/08/10 00:05:56;;;;;;;7.43;3.20;;;;;;;;;;5016048;28;20053;-75
2021/08/10 00:08:23;;;;;;;6.18;3.30;;;;;;;;;;5014960;28;20021;-76
2021/08/10 00:10:50;;;;;;;7.60;3.10;;;;;;;;;;5016151;28;20058;-76
2021/08/10 00:13:17;;;;;;;7.57;3.25;;;;;;;;;;5016179;28;20026;-75
2021/08/10 00:15:43;;;;;;;5.70;3.17;;;;;;;;;;5016001;28;20034;-76
2021/08/10 00:18:09;;;;;;;7.25;3.25;;;;;;;;;;5016375;28;20359;-78
2021/08/10 00:20:36;;;;;;;6.15;3.13;;;;;;;;;;5016011;28;20030;-76
2021/08/10 00:23:02;;;;;;;4.47;2.95;;;;;;;;;;5016249;28;20036;-75
2021/08/10 00:25:28;;;;;;;7.60;3.33;;;;;;;;;;5016165;28;20036;-76
2021/08/10 00:27:54;;;;;;;8.35;3.08;;;;;;;;;;5014596;28;20397;-75
2021/08/10 00:30:21;;;;;;;6.05;3.35;;;;;;;;;;5016088;28;20497;-76
2021/08/10 00:32:47;;;;;;;6.55;3.17;;;;;;;;;;5015753;28;20096;-75
2021/08/10 00:35:13;;;;;;;4.25;2.70;;;;;;;;;;5015626;28;20104;-75
2021/08/10 00:37:39;;;;;;;8.45;3.60;;;;;;;;;;5015618;28;20494;-75
2021/08/10 00:40:06;;;;;;;8.20;3.55;;;;;;;;;;5015565;28;20037;-76
2021/08/10 00:42:32;;;;;;;6.18;3.10;;;;;;;;;;5015812;28;20053;-76
2021/08/10 00:44:58;;;;;;;5.70;2.88;;;;;;;;;;5015747;28;20075;-75
2021/08/10 00:47:24;;;;;;;7.35;3.63;;;;;;;;;;5015463;28;20030;-76
2021/08/10 00:49:50;;;;;;;8.40;3.83;;;;;;;;;;5015382;28;20489;-76
2021/08/10 00:52:16;;;;;;;8.82;3.05;;;;;;;;;;5015333;28;20026;-76
2021/08/10 00:54:42;;;;;;;8.05;3.13;;;;;;;;;;5015216;28;20041;-76
2021/08/10 00:57:08;;;;;;;7.57;3.20;;;;;;;;;;5015281;28;20390;-75
2021/08/10 00:59:34;;;;;;;7.18;3.25;;;;;;;;;;5015475;28;20028;-76
2021/08/10 01:02:01;;;;;;;6.00;3.00;;;;;;;;;;5015368;28;20029;-75
2021/08/10 01:04:27;;;;;;;8.55;3.80;;;;;;;;;;5015216;28;20038;-75
2021/08/10 01:07:08;;;;;;;11.70;3.75;;;;;;;;;;5015429;28;20030;-75
2021/08/10 01:09:50;;;;;;;8.75;3.03;;;;;;;;;;5015036;28;20449;-76
2021/08/10 01:12:17;;;;;;;8.90;3.60;;;;;;;;;;5014697;28;20391;-76
2021/08/10 01:14:43;;;;;;;8.25;3.10;;;;;;;;;;5014851;28;20524;-75
2021/08/10 01:17:21;;;;;;;7.13;3.60;;;;;;;;;;5015188;28;20049;-75
2021/08/10 01:20:06;;;;;;;8.18;3.38;;;;;;;;;;5015151;28;20430;-76
2021/08/10 01:22:34;;;;;;;6.28;3.10;;;;;;;;;;5014824;28;20088;-76
2021/08/10 01:25:27;;;;;;;7.78;3.53;;;;;;;;;;5014992;28;20030;-75
2021/08/10 01:27:53;;;;;;;5.63;3.05;;;;;;;;;;5015250;28;20022;-74
2021/08/10 01:30:24;;;;;;;9.23;3.17;;;;;;;;;;5014953;28;20068;-76
2021/08/10 01:32:51;;;;;;;6.10;3.10;;;;;;;;;;5014631;28;20026;-75
2021/08/10 01:35:19;;;;;;;7.38;3.47;;;;;;;;;;5014520;28;20034;-76
2021/08/10 01:37:47;;;;;;;8.88;3.78;;;;;;;;;;5014817;28;20014;-76
2021/08/10 01:40:14;;;;;;;7.78;3.13;;;;;;;;;;5013177;28;20033;-77
2021/08/10 01:42:41;;;;;;;9.07;4.07;;;;;;;;;;5014443;28;20022;-76
2021/08/10 01:45:07;;;;;;;7.38;3.67;;;;;;;;;;5014396;28;20105;-76
2021/08/10 01:47:34;;;;;;;9.80;3.90;;;;;;;;;;5013072;28;20390;-75
2021/08/10 01:50:01;;;;;;;7.47;3.70;;;;;;;;;;5014361;28;20030;-76
2021/08/10 01:52:27;;;;;;;7.57;3.58;;;;;;;;;;5014247;28;20025;-75
2021/08/10 01:54:54;;;;;;;10.80;3.88;;;;;;;;;;5014144;28;20026;-75
2021/08/10 01:57:21;;;;;;;10.40;4.05;;;;;;;;;;5014184;28;20478;-75
2021/08/10 01:59:49;;;;;;;7.45;3.35;;;;;;;;;;5014394;28;20051;-75
2021/08/10 02:02:15;;;;;;;7.50;3.58;;;;;;;;;;5014035;28;20022;-74
2021/08/10 02:04:42;;;;;;;5.60;3.40;;;;;;;;;;5012580;28;20080;-76
2021/08/10 02:07:08;;;;;;;8.00;3.80;;;;;;;;;;5012501;28;20433;-76
2021/08/10 02:09:35;;;;;;;10.15;4.18;;;;;;;;;;5013979;28;20025;-76
2021/08/10 02:12:02;;;;;;;10.00;4.00;;;;;;;;;;5012672;28;20557;-76
2021/08/10 02:14:28;;;;;;;5.72;3.42;;;;;;;;;;5013856;28;20072;-76
2021/08/10 02:16:56;;;;;;;7.97;3.53;;;;;;;;;;5014417;28;20026;-75
2021/08/10 02:19:22;;;;;;;8.43;4.00;;;;;;;;;;5014082;28;20147;-75
2021/08/10 02:21:49;;;;;;;9.65;4.55;;;;;;;;;;5013701;28;20018;-75
2021/08/10 02:24:21;;;;;;;9.07;3.88;;;;;;;;;;5013278;28;20029;-77
2021/08/10 02:26:52;;;;;;;9.80;4.15;;;;;;;;;;5012452;28;20461;-75
2021/08/10 02:29:19;;;;;;;9.02;4.07;;;;;;;;;;5013741;28;20474;-76
2021/08/10 02:31:46;;;;;;;8.20;4.15;;;;;;;;;;5013928;28;20049;-76
2021/08/10 02:34:13;;;;;;;9.50;4.28;;;;;;;;;;5013785;28;20034;-76
2021/08/10 02:36:39;;;;;;;8.25;3.67;;;;;;;;;;5012307;28;20022;-75
2021/08/10 02:39:07;;;;;;;8.77;3.92;;;;;;;;;;5013578;28;20030;-75
2021/08/10 02:41:35;;;;;;;8.23;3.75;;;;;;;;;;5013581;28;20427;-76
2021/08/10 02:44:01;;;;;;;10.05;4.25;;;;;;;;;;5013517;28;20530;-76
2021/08/10 02:46:28;;;;;;;6.32;3.90;;;;;;;;;;5013519;28;20022;-76
2021/08/10 02:48:54;;;;;;;12.18;3.97;;;;;;;;;;5013476;28;20026;-75
2021/08/10 02:51:20;;;;;;;11.98;3.65;;;;;;;;;;5013439;28;20389;-75
2021/08/10 02:53:46;;;;;;;10.20;4.00;;;;;;;;;;5013340;28;20104;-76
2021/08/10 02:56:22;;;;;;;9.30;4.00;;;;;;;;;;5013379;28;20109;-76
2021/08/10 02:58:56;;;;;;;7.45;3.67;;;;;;;;;;5013389;28;20032;-75
2021/08/10 03:01:25;;;;;;;8.25;3.63;;;;;;;;;;5013733;28;20104;-76
2021/08/10 03:03:53;;;;;;;11.13;4.07;;;;;;;;;;5013261;28;20029;-76
2021/08/10 03:06:20;;;;;;;9.60;4.03;;;;;;;;;;5012986;28;20521;-76
2021/08/10 03:08:47;;;;;;;8.02;3.85;;;;;;;;;;5013270;28;20022;-76
2021/08/10 03:11:13;;;;;;;7.43;3.75;;;;;;;;;;5013262;28;20018;-76
2021/08/10 03:13:41;;;;;;;8.63;3.83;;;;;;;;;;5013178;28;20030;-76
2021/08/10 03:16:08;;;;;;;11.43;4.05;;;;;;;;;;5011975;28;20025;-76
2021/08/10 03:18:36;;;;;;;11.50;4.30;;;;;;;;;;5013454;28;20076;-77
2021/08/10 03:21:02;;;;;;;9.18;4.22;;;;;;;;;;5013185;28;20026;-76
2021/08/10 03:23:29;;;;;;;15.10;4.05;;;;;;;;;;5013691;28;20026;-75
2021/08/10 03:25:56;;;;;;;9.40;3.67;;;;;;;;;;5013431;28;20052;-76
2021/08/10 03:28:25;;;;;;;10.18;3.70;;;;;;;;;;5013374;28;20367;-76
2021/08/10 03:30:52;;;;;;;11.25;4.13;;;;;;;;;;5011981;28;20026;-75
2021/08/10 03:33:18;;;;;;;8.98;3.72;;;;;;;;;;5013294;28;20211;-75
2021/08/10 03:35:44;;;;;;;9.15;4.43;;;;;;;;;;5016985;28;20026;-77
2021/08/10 03:38:11;;;;;;;8.18;3.45;;;;;;;;;;5017534;28;20104;-75
2021/08/10 03:40:38;;;;;;;8.30;3.92;;;;;;;;;;5017053;28;20423;-76
2021/08/10 03:43:05;;;;;;;8.63;3.35;;;;;;;;;;5016695;28;20026;-74
2021/08/10 03:45:31;;;;;;;7.35;3.33;;;;;;;;;;5016651;28;20026;-75
2021/08/10 03:47:57;;;;;;;9.75;4.00;;;;;;;;;;5016666;28;20042;-76
2021/08/10 03:50:25;;;;;;;8.57;3.70;;;;;;;;;;5016826;28;20049;-74
2021/08/10 03:52:51;;;;;;;7.13;3.55;;;;;;;;;;5016494;28;20034;-75
2021/08/10 03:55:17;;;;;;;9.07;4.05;;;;;;;;;;5016656;28;20057;-75
2021/08/10 03:57:45;;;;;;;7.97;3.28;;;;;;;;;;5016396;28;20037;-74
2021/08/10 04:00:12;;;;;;;6.80;3.22;;;;;;;;;;5016648;28;20494;-74
2021/08/10 04:02:40;;;;;;;7.47;3.80;;;;;;;;;;5016303;28;20030;-75
2021/08/10 04:05:07;;;;;;;8.38;3.75;;;;;;;;;;5016545;28;20057;-74
2021/08/10 04:07:33;;;;;;;6.72;3.47;;;;;;;;;;5014718;28;20037;-75
2021/08/10 04:09:59;;;;;;;8.32;3.92;;;;;;;;;;5016215;28;20105;-76
2021/08/10 04:12:25;;;;;;;10.60;3.65;;;;;;;;;;5016139;28;20036;-74
2021/08/10 04:14:51;;;;;;;8.65;3.75;;;;;;;;;;5016011;28;20040;-74
2021/08/10 04:17:17;;;;;;;8.13;3.30;;;;;;;;;;5016053;28;20026;-75
2021/08/10 04:19:45;;;;;;;9.88;3.47;;;;;;;;;;5015998;28;20534;-74
2021/08/10 04:22:13;;;;;;;9.05;3.53;;;;;;;;;;5015976;28;20105;-76
2021/08/10 04:24:39;;;;;;;7.20;2.80;;;;;;;;;;5014711;28;20058;-74
2021/08/10 04:27:05;;;;;;;8.63;3.70;;;;;;;;;;5015900;28;20490;-75
2021/08/10 04:29:31;;;;;;;5.70;3.05;;;;;;;;;;5016138;28;20021;-74
2021/08/10 04:31:57;;;;;;;9.25;3.70;;;;;;;;;;5016077;28;20030;-74
2021/08/10 04:34:23;;;;;;;9.82;4.40;;;;;;;;;;5015908;28;20434;-74
2021/08/10 04:36:49;;;;;;;8.07;3.38;;;;;;;;;;5015904;28;20022;-75
2021/08/10 04:39:15;;;;;;;8.15;3.70;;;;;;;;;;5015616;28;20071;-75
2021/08/10 04:41:41;;;;;;;8.10;3.70;;;;;;;;;;5015553;28;20076;-75
2021/08/10 04:44:10;;;;;;;8.43;3.53;;;;;;;;;;5015812;28;20156;-74
2021/08/10 04:46:36;;;;;;;7.55;3.28;;;;;;;;;;5015157;28;20026;-74
2021/08/10 04:49:04;;;;;;;8.95;3.35;;;;;;;;;;5015511;28;20030;-76
2021/08/10 04:51:31;;;;;;;11.95;3.58;;;;;;;;;;5015496;28;20022;-74
2021/08/10 04:53:57;;;;;;;10.60;4.07;;;;;;;;;;5015320;28;20113;-75
2021/08/10 04:56:23;;;;;;;10.23;3.80;;;;;;;;;;5015406;28;20097;-76
2021/08/10 04:58:49;;;;;;;11.27;3.80;;;;;;;;;;5015583;28;20026;-74
2021/08/10 05:01:15;;;;;;;7.75;3.47;;;;;;;;;;5015220;28;20029;-76
2021/08/10 05:03:41;;;;;;;8.20;3.22;;;;;;;;;;5015236;28;20525;-76
2021/08/10 05:06:07;;;;;;;6.70;2.97;;;;;;;;;;5014957;28;20522;-75
2021/08/10 05:08:33;;;;;;;6.25;3.00;;;;;;;;;;5015045;28;20018;-76
2021/08/10 05:11:01;;;;;;;7.72;3.60;;;;;;;;;;5015297;28;20099;-76
2021/08/10 05:13:27;;;;;;;5.30;3.30;;;;;;;;;;5015064;28;20014;-76
2021/08/10 05:15:53;;;;;;;7.78;3.28;;;;;;;;;;5015450;28;20038;-75
2021/08/10 05:18:19;;;;;;;10.02;3.38;;;;;;;;;;5015495;28;20071;-75
2021/08/10 05:20:45;;;;;;;7.32;3.00;;;;;;;;;;5015409;28;20030;-75
2021/08/10 05:23:11;;;;;;;4.55;2.30;;;;;;;;;;5015079;28;20518;-76
2021/08/10 05:25:37;;;;;;;5.30;2.17;;;;;;;;;;5014796;28;20034;-74
2021/08/10 05:28:04;;;;;;;6.65;2.30;;;;;;;;;;5014771;28;20504;-75
2021/08/10 05:30:30;;;;;;;4.47;2.40;;;;;;;;;;5014694;28;20029;-76
2021/08/10 05:32:56;;;;;;;5.43;2.35;;;;;;;;;;5014630;28;20505;-76
2021/08/10 05:35:22;;;;;;;6.03;2.85;;;;;;;;;;5014534;28;20030;-75
2021/08/10 05:37:48;;;;;;;4.97;2.10;;;;;;;;;;5014593;28;20074;-75
2021/08/10 05:40:14;;;;;;;3.88;2.50;;;;;;;;;;5013208;28;20441;-77
2021/08/10 05:42:40;;;;;;;6.55;2.35;;;;;;;;;;5014513;28;20022;-76
2021/08/10 05:45:06;;;;;;;3.28;2.13;;;;;;;;;;5014417;28;20427;-76
2021/08/10 05:47:32;;;;;;;5.65;1.85;;;;;;;;;;5014684;28;20482;-74
2021/08/10 05:49:58;;;;;;;4.00;1.95;;;;;;;;;;5014344;28;20030;-76
2021/08/10 05:52:24;;;;;;;5.22;1.85;;;;;;;;;;5014555;28;20033;-75
2021/08/10 05:54:50;;;;;;;4.97;2.17;;;;;;;;;;5014190;28;20482;-75
2021/08/10 05:57:16;;;;;;;4.03;1.88;;;;;;;;;;5013411;28;20136;-76
2021/08/10 05:59:44;;;;;;;3.90;2.55;;;;;;;;;;5012807;28;20088;-77
2021/08/10 06:02:10;;;;;;;1.92;1.60;;;;;;;;;;5014098;28;20075;-75
2021/08/10 06:04:36;;;;;;;4.93;1.90;;;;;;;;;;5013896;28;20482;-76
2021/08/10 06:07:04;;;;;;;5.47;2.28;;;;;;;;;;5014374;28;20037;-76
2021/08/10 06:09:30;;;;;;;4.00;1.70;;;;;;;;;;5014091;28;20029;-75
2021/08/10 06:11:56;;;;;;;5.35;1.95;;;;;;;;;;5012701;28;20033;-75
2021/08/10 06:14:22;;;;;;;2.80;1.70;;;;;;;;;;5014086;28;20045;-75
2021/08/10 06:16:48;;;;;;;2.83;1.63;;;;;;;;;;5014175;28;20096;-76
2021/08/10 06:19:14;;;;;;;5.20;2.10;;;;;;;;;;5014120;28;20105;-76
2021/08/10 06:21:40;;;;;;;3.42;1.55;;;;;;;;;;5013854;28;20105;-75
2021/08/10 06:24:06;;;;;;;2.97;1.60;;;;;;;;;;5014127;28;20030;-75
2021/08/10 06:26:32;;;;;;;5.22;1.67;;;;;;;;;;5014024;28;20545;-76
2021/08/10 06:28:58;;;;;;;2.95;1.33;;;;;;;;;;5013732;28;20061;-75
2021/08/10 06:31:24;;;;;;;3.90;1.90;;;;;;;;;;5013697;28;20079;-75
2021/08/10 06:33:50;;;;;;;2.95;1.50;;;;;;;;;;5013573;28;20022;-77
2021/08/10 06:36:16;;;;;;;3.53;1.70;;;;;;;;;;5014140;28;20022;-76
2021/08/10 06:38:43;;;;;;;3.20;1.55;;;;;;;;;;5013864;28;20036;-74
2021/08/10 06:41:09;;;;;;;4.60;1.58;;;;;;;;;;5013899;28;20068;-77
2021/08/10 06:43:35;;;;;;;2.38;1.40;;;;;;;;;;5013836;28;20025;-75
2021/08/10 06:46:01;;;;;;;4.00;1.52;;;;;;;;;;5013854;28;20033;-75
2021/08/10 06:48:27;;;;;;;2.30;1.55;;;;;;;;;;5013721;28;20455;-76
2021/08/10 06:50:53;;;;;;;2.78;1.33;;;;;;;;;;5013465;28;20113;-76
2021/08/10 06:53:20;;;;;;;2.03;1.50;;;;;;;;;;5013981;28;20069;-75
2021/08/10 06:55:46;;;;;;;3.45;1.52;;;;;;;;;;5013685;28;20030;-76
2021/08/10 06:58:12;;;;;;;4.18;1.70;;;;;;;;;;5012166;28;20033;-77
2021/08/10 07:00:39;;;;;;;2.88;1.45;;;;;;;;;;5013352;28;20100;-76
2021/08/10 07:03:06;;;;;;;2.13;1.58;;;;;;;;;;5013573;28;20079;-75
2021/08/10 07:05:32;;;;;;;2.22;1.30;;;;;;;;;;5013157;28;20076;-76
2021/08/10 07:07:58;;;;;;;1.20;0.95;;;;;;;;;;5012088;28;20428;-75
2021/08/10 07:10:24;;;;;;;1.27;1.08;;;;;;;;;;5016699;28;20160;-75
2021/08/10 07:12:50;;;;;;;2.22;1.10;;;;;;;;;;5017285;28;20026;-75
2021/08/10 07:15:16;;;;;;;2.05;0.90;;;;;;;;;;5017154;28;20382;-76
2021/08/10 07:17:42;;;;;;;1.92;0.93;;;;;;;;;;5017448;28;20029;-76
2021/08/10 07:20:08;;;;;;;1.05;0.95;;;;;;;;;;5017443;28;20025;-75
2021/08/10 07:22:34;;;;;;;4.38;1.33;;;;;;;;;;5015850;28;20390;-74
2021/08/10 07:25:00;;;;;;;2.47;1.10;;;;;;;;;;5017075;28;20419;-75
2021/08/10 07:27:26;;;;;;;1.40;0.80;;;;;;;;;;5017044;28;20445;-76
2021/08/10 07:29:53;;;;;;;1.25;0.70;;;;;;;;;;5016982;28;20105;-75
2021/08/10 07:32:19;;;;;;;2.90;1.17;;;;;;;;;;5016957;28;20570;-75
2021/08/10 07:34:45;;;;;;;1.20;0.82;;;;;;;;;;5016800;28;20121;-77
2021/08/10 07:37:11;;;;;;;1.08;0.70;;;;;;;;;;5015581;28;20021;-76
2021/08/10 07:39:37;;;;;;;2.85;1.02;;;;;;;;;;5016803;28;20480;-76
2021/08/10 07:42:03;;;;;;;2.40;0.80;;;;;;;;;;5016737;28;20022;-75
2021/08/10 07:44:29;;;;;;;1.65;0.88;;;;;;;;;;5017224;28;20068;-76
2021/08/10 07:46:55;;;;;;;2.60;0.80;;;;;;;;;;5016968;28;20057;-75
2021/08/10 07:49:21;;;;;;;2.50;0.75;;;;;;;;;;5016614;28;20458;-75
2021/08/10 07:51:47;;;;;;;0.95;0.70;;;;;;;;;;5016531;28;20075;-75
2021/08/10 07:54:13;;;;;;;0.57;0.52;;;;;;;;;;5016772;28;20029;-75
2021/08/10 07:56:39;;;;;;;1.38;0.80;;;;;;;;;;5016796;28;20097;-76
2021/08/10 07:59:05;;;;;;;0.95;0.70;;;;;;;;;;5016708;28;20486;-75
2021/08/10 08:01:31;;;;;;;1.17;0.55;;;;;;;;;;5016372;28;20018;-74
2021/08/10 08:03:57;;;;;;;1.63;0.80;;;;;;;;;;5016208;28;20088;-75
2021/08/10 08:06:23;;;;;;;2.45;1.20;;;;;;;;;;5015987;28;20080;-75
2021/08/10 08:08:49;;;;;;;1.40;0.80;;;;;;;;;;5016278;28;20022;-74
2021/08/10 08:11:15;;;;;;;2.00;0.68;;;;;;;;;;5016275;28;20021;-74
2021/08/10 08:13:41;;;;;;;0.50;0.50;;;;;;;;;;5016737;28;20033;-75
2021/08/10 08:16:07;;;;;;;0.80;0.63;;;;;;;;;;5016095;28;20037;-76
2021/08/10 08:18:33;;;;;;;1.33;0.75;;;;;;;;;;5016112;28;20495;-75
2021/08/10 08:20:59;;;;;;;1.13;0.52;;;;;;;;;;5014850;28;20025;-76
2021/08/10 08:23:27;;;;;;;0.93;0.85;;;;;;;;;;5016250;28;20022;-74
2021/08/10 08:25:54;;;;;;;0.77;0.50;;;;;;;;;;5016529;28;20033;-75
2021/08/10 08:28:20;;;;;;;0.73;0.50;;;;;;;;;;5015898;28;20030;-75
2021/08/10 08:30:46;;;;;;;0.73;0.73;;;;;;;;;;5016212;28;20391;-76
2021/08/10 08:33:12;;;;;;;0.80;0.70;;;;;;;;;;5014519;28;20391;-76
2021/08/10 08:35:39;;;;;;;1.50;0.77;;;;;;;;;;5015688;28;20498;-75
2021/08/10 08:38:06;;;;;;;1.63;0.90;;;;;;;;;;5015961;28;20151;-74
2021/08/10 08:40:32;;;;;;;1.38;0.80;;;;;;;;;;5015634;28;20077;-75
2021/08/10 08:42:58;;;;;;;2.05;0.75;;;;;;;;;;5015858;28;20414;-75
2021/08/10 08:45:24;;;;;;;1.90;0.75;;;;;;;;;;5015843;28;20030;-77
2021/08/10 08:47:52;;;;;;;2.05;1.30;;;;;;;;;;5015557;28;20084;-76
2021/08/10 08:50:19;;;;;;;1.17;0.80;;;;;;;;;;5015501;28;20030;-74
2021/08/10 08:52:46;;;;;;;0.65;0.65;;;;;;;;;;5014195;28;20022;-75
2021/08/10 08:55:15;;;;;;;1.25;0.50;;;;;;;;;;5015317;28;20105;-75
2021/08/10 08:57:41;;;;;;;0.60;0.60;;;;;;;;;;5015340;28;20041;-74
2021/08/10 09:00:08;;;;;;;0.80;0.50;;;;;;;;;;5015302;28;20478;-76
2021/08/10 09:02:34;;;;;;;1.52;0.40;;;;;;;;;;5015193;28;20022;-75
2021/08/10 09:05:00;;;;;;;1.55;0.60;;;;;;;;;;5015045;28;20053;-75
2021/08/10 09:07:29;;;;;;;1.95;0.57;;;;;;;;;;5013687;28;20025;-77
2021/08/10 09:10:09;;;;;;;0.30;0.30;;;;;;;;;;5015704;28;20061;-75
2021/08/10 09:12:45;;;;;;;0.47;0.40;;;;;;;;;;5015127;28;20494;-76
2021/08/10 09:15:12;;;;;;;0.50;0.50;;;;;;;;;;5015200;28;20034;-75
2021/08/10 09:17:47;;;;;;;0.65;0.40;;;;;;;;;;5015264;28;20080;-74
2021/08/10 09:20:19;;;;;;;0.43;0.32;;;;;;;;;;5015217;28;20056;-74
2021/08/10 09:22:45;;;;;;;1.85;0.40;;;;;;;;;;5013670;28;20018;-74
2021/08/10 09:25:15;;;;;;;1.35;0.60;;;;;;;;;;5014843;28;20109;-75
2021/08/10 09:27:41;;;;;;;0.90;0.55;;;;;;;;;;5014777;28;20032;-74
2021/08/10 09:30:11;;;;;;;0.47;0.47;;;;;;;;;;5014650;28;20032;-75
2021/08/10 09:32:52;;;;;;;0.65;0.35;;;;;;;;;;5014884;28;20022;-74
2021/08/10 09:35:21;;;;;;;0.40;0.40;;;;;;;;;;5015105;28;20378;-75
2021/08/10 09:38:05;;;;;;;0.80;0.60;;;;;;;;;;5014679;28;20050;-75
2021/08/10 09:40:33;;;;;;;0.40;0.38;;;;;;;;;;5015094;28;20069;-75
2021/08/10 09:43:18;;;;;;;0.57;0.32;;;;;;;;;;5014483;28;20034;-74
2021/08/10 09:45:45;;;;;;;0.20;0.20;;;;;;;;;;5014195;28;20022;-75
2021/08/10 09:48:17;;;;;;;2.80;0.93;;;;;;;;;;5013366;28;20490;-74
2021/08/10 09:50:44;;;;;;;0.50;0.50;;;;;;;;;;5013082;28;20034;-74
2021/08/10 09:53:20;;;;;;;0.45;0.38;;;;;;;;;;5014849;28;20057;-74
2021/08/10 09:55:54;;;;;;;1.80;0.80;;;;;;;;;;5014217;28;20033;-74
2021/08/10 09:58:20;;;;;;;0.95;0.55;;;;;;;;;;5014293;28;20029;-73
2021/08/10 10:00:46;;;;;;;1.05;0.50;;;;;;;;;;5012700;28;20022;-73
2021/08/10 10:03:15;;;;;;;1.33;0.40;;;;;;;;;;5014170;28;20121;-74
2021/08/10 10:05:43;;;;;;;0.90;0.50;;;;;;;;;;5014294;28;20128;-73
2021/08/10 10:08:18;;;;;;;0.73;0.50;;;;;;;;;;5014939;28;20073;-74
2021/08/10 10:10:45;;;;;;;0.50;0.50;;;;;;;;;;5014083;28;20085;-75
2021/08/10 10:13:12;;;;;;;1.88;1.20;;;;;;;;;;5014642;28;20109;-74
2021/08/10 10:15:39;;;;;;;1.10;0.63;;;;;;;;;;5013178;28;20076;-74
2021/08/10 10:18:06;;;;;;;2.45;0.50;;;;;;;;;;5014186;28;20030;-75
2021/08/10 10:20:32;;;;;;;1.38;1.13;;;;;;;;;;5014007;28;20057;-74
2021/08/10 10:22:59;;;;;;;0.70;0.70;;;;;;;;;;5013842;28;20018;-73
2021/08/10 10:25:25;;;;;;;0.70;0.50;;;;;;;;;;5014339;28;20109;-79
2021/08/10 10:27:52;;;;;;;2.13;0.90;;;;;;;;;;5014233;28;20525;-78
2021/08/10 10:30:18;;;;;;;1.05;0.80;;;;;;;;;;5013767;28;20021;-78
2021/08/10 10:32:44;;;;;;;0.47;0.47;;;;;;;;;;5013169;28;20022;-74
2021/08/10 10:35:10;;;;;;;0.55;0.50;;;;;;;;;;5013593;28;20061;-76
2021/08/10 10:37:37;;;;;;;1.67;0.68;;;;;;;;;;5013679;28;20026;-76
2021/08/10 10:40:07;;;;;;;0.73;0.60;;;;;;;;;;5013531;28;20054;-75
2021/08/10 10:42:33;;;;;;;0.70;0.40;;;;;;;;;;5013556;28;20025;-75
2021/08/10 10:44:59;;;;;;;1.40;0.80;;;;;;;;;;5013623;28;20034;-76
2021/08/10 10:47:26;;;;;;;0.65;0.50;;;;;;;;;;5012949;28;20152;-75
2021/08/10 10:49:57;;;;;;;1.02;0.70;;;;;;;;;;5012154;28;20175;-76
2021/08/10 10:52:24;;;;;;;1.35;0.70;;;;;;;;;;5012817;28;20022;-75
2021/08/10 10:54:54;;;;;;;0.60;0.60;;;;;;;;;;5012502;28;20037;-72
2021/08/10 10:57:32;;;;;;;1.08;0.80;;;;;;;;;;5013151;28;20045;-72
2021/08/10 10:59:59;;;;;;;1.95;0.65;;;;;;;;;;5012623;28;20029;-74
2021/08/10 11:02:26;;;;;;;2.28;0.90;;;;;;;;;;5013110;28;20389;-76
2021/08/10 11:05:08;;;;;;;0.70;0.68;;;;;;;;;;5011964;28;20050;-74
2021/08/10 11:07:38;;;;;;;1.08;0.80;;;;;;;;;;5013666;28;20030;-73
2021/08/10 11:10:04;;;;;;;;;;;;;;;;;;5014050;28;20560;-74
2021/08/10 11:12:33;;;;;;;1.75;0.95;;;;;;;;;;5013573;28;19956;-75
2021/08/10 11:14:59;;;;;;;1.40;1.13;;;;;;;;;;5013777;28;20030;-73
2021/08/10 11:17:25;;;;;;;1.55;0.85;;;;;;;;;;5013467;28;20022;-75
2021/08/10 11:19:52;;;;;;;1.13;0.70;;;;;;;;;;5013201;28;20030;-73
2021/08/10 11:22:18;;;;;;;1.80;0.90;;;;;;;;;;5013235;28;20429;-74
2021/08/10 11:24:51;;;;;;;1.58;0.70;;;;;;;;;;5013394;28;20037;-74
2021/08/10 11:27:33;;;;;;;1.23;0.80;;;;;;;;;;5013179;28;20026;-74
2021/08/10 11:30:00;;;;;;;0.68;0.68;;;;;;;;;;5013419;28;20382;-76
2021/08/10 11:32:38;;;;;;;1.10;1.00;;;;;;;;;;5013404;28;20022;-75
2021/08/10 11:35:24;;;;;;;1.00;0.90;;;;;;;;;;5013085;28;20088;-75
2021/08/10 11:38:16;;;;;;;1.17;0.80;;;;;;;;;;5013441;28;20042;-75
2021/08/10 11:40:50;;;;;;;1.10;0.90;;;;;;;;;;5008653;28;20040;-75
2021/08/10 11:43:16;;;;;;;3.20;1.02;;;;;;;;;;5013553;28;20019;-74
2021/08/10 11:45:42;;;;;;;0.57;0.57;;;;;;;;;;5011646;28;20490;-74
2021/08/10 11:48:08;;;;;;;0.93;0.73;;;;;;;;;;5013811;28;20033;-74
2021/08/10 11:50:35;;;;;;;1.42;0.80;;;;;;;;;;5014418;28;20394;-75
2021/08/10 11:53:03;;;;;;;1.70;0.80;;;;;;;;;;5013600;28;20033;-76
2021/08/10 11:55:33;;;;;;;0.88;0.82;;;;;;;;;;5015244;28;20056;-76
2021/08/10 11:58:07;;;;;;;3.08;0.88;;;;;;;;;;5015793;28;20072;-76
2021/08/10 12:00:35;;;;;;;1.38;0.75;;;;;;;;;;5018296;28;20459;-77
2021/08/10 12:03:02;;;;;;;1.70;0.80;;;;;;;;;;5017612;28;20029;-75
2021/08/10 12:05:29;;;;;;;0.98;0.80;;;;;;;;;;5016954;28;20058;-75
2021/08/10 12:07:59;;;;;;;2.30;0.88;;;;;;;;;;5017170;28;20165;-75
2021/08/10 12:10:27;;;;;;;0.85;0.70;;;;;;;;;;5014776;28;20105;-74
2021/08/10 12:12:53;;;;;;;1.35;0.90;;;;;;;;;;5015014;28;20025;-74
2021/08/10 12:15:36;;;;;;;1.65;0.90;;;;;;;;;;5016323;28;20405;-73
2021/08/10 12:18:02;;;;;;;1.27;0.80;;;;;;;;;;5016171;28;20022;-73
2021/08/10 12:20:28;;;;;;;2.05;0.88;;;;;;;;;;5016635;28;20105;-74
2021/08/10 12:23:20;;;;;;;2.38;1.20;;;;;;;;;;5016106;28;20149;-73
2021/08/10 12:25:46;;;;;;;0.90;0.77;;;;;;;;;;5013397;28;20045;-75
2021/08/10 12:28:12;;;;;;;1.40;1.20;;;;;;;;;;5016303;28;20490;-74
2021/08/10 12:30:42;;;;;;;1.50;0.93;;;;;;;;;;5014662;28;20125;-75
2021/08/10 12:33:12;;;;;;;1.50;0.90;;;;;;;;;;5015981;28;20426;-74
2021/08/10 12:35:38;;;;;;;0.80;0.80;;;;;;;;;;5016037;28;20108;-74
2021/08/10 12:38:05;;;;;;;3.47;1.00;;;;;;;;;;5016009;28;20385;-76
2021/08/10 12:40:31;;;;;;;1.13;0.90;;;;;;;;;;5015821;28;20425;-75
2021/08/10 12:42:58;;;;;;;1.67;1.10;;;;;;;;;;5016106;28;20068;-75
2021/08/10 12:45:31;;;;;;;1.10;1.00;;;;;;;;;;5015901;28;20082;-75
2021/08/10 12:47:57;;;;;;;1.35;1.00;;;;;;;;;;5015592;28;20026;-75
2021/08/10 12:50:24;;;;;;;1.05;0.95;;;;;;;;;;5014349;28;20042;-77
2021/08/10 12:52:50;;;;;;;4.00;1.40;;;;;;;;;;5016130;28;20482;-74
2021/08/10 12:55:16;;;;;;;1.52;0.95;;;;;;;;;;5015385;28;20033;-75
2021/08/10 12:57:43;;;;;;;0.82;0.82;;;;;;;;;;5015912;28;20091;-79
2021/08/10 13:00:19;;;;;;;0.80;0.80;;;;;;;;;;5015720;28;20022;-76
2021/08/10 13:02:46;;;;;;;1.23;0.98;;;;;;;;;;5015447;28;20022;-75
2021/08/10 13:05:13;;;;;;;2.55;1.13;;;;;;;;;;5015975;28;20034;-75
2021/08/10 13:07:40;;;;;;;1.58;0.82;;;;;;;;;;5014538;28;20046;-76
2021/08/10 13:10:07;;;;;;;1.42;1.27;;;;;;;;;;5014070;28;20502;-74
2021/08/10 13:12:34;;;;;;;1.48;0.90;;;;;;;;;;5015649;28;20025;-75
2021/08/10 13:15:03;;;;;;;0.90;0.80;;;;;;;;;;5015185;28;20045;-74
2021/08/10 13:17:47;;;;;;;3.05;1.17;;;;;;;;;;5015211;28;20017;-74
2021/08/10 13:20:16;;;;;;;0.98;0.90;;;;;;;;;;5015892;28;20152;-74
2021/08/10 13:22:42;;;;;;;2.17;1.25;;;;;;;;;;5013932;28;20022;-75
2021/08/10 13:25:09;;;;;;;1.65;1.27;;;;;;;;;;5014864;28;20033;-74
2021/08/10 13:27:35;;;;;;;1.45;1.23;;;;;;;;;;5015423;28;20022;-75
2021/08/10 13:30:01;;;;;;;2.33;1.23;;;;;;;;;;5015692;28;20030;-73
2021/08/10 13:32:27;;;;;;;1.98;1.30;;;;;;;;;;5015744;28;20037;-75
2021/08/10 13:34:54;;;;;;;1.33;1.20;;;;;;;;;;5015705;28;20485;-76
2021/08/10 13:37:21;;;;;;;1.33;1.20;;;;;;;;;;5014967;28;20056;-74
2021/08/10 13:39:47;;;;;;;2.15;1.40;;;;;;;;;;5014951;28;20080;-74
2021/08/10 13:42:16;;;;;;;2.33;1.02;;;;;;;;;;5015112;28;20068;-76
2021/08/10 13:44:42;;;;;;;1.60;1.15;;;;;;;;;;5014504;28;20113;-75
2021/08/10 13:47:10;;;;;;;1.33;1.23;;;;;;;;;;5014464;28;20076;-76
2021/08/10 13:49:36;;;;;;;2.42;1.23;;;;;;;;;;5014550;28;20106;-75
2021/08/10 13:52:02;;;;;;;1.42;1.20;;;;;;;;;;5014647;28;20053;-74
2021/08/10 13:54:28;;;;;;;2.13;1.35;;;;;;;;;;5014532;28;20083;-75
2021/08/10 13:56:54;;;;;;;1.52;1.33;;;;;;;;;;5014261;28;20022;-75
2021/08/10 13:59:20;;;;;;;2.03;1.60;;;;;;;;;;5014249;28;20101;-75
2021/08/10 14:01:47;;;;;;;1.65;1.35;;;;;;;;;;5014085;28;20497;-77
2021/08/10 14:04:13;;;;;;;1.60;1.00;;;;;;;;;;5014228;28;20060;-75
2021/08/10 14:06:39;;;;;;;2.85;1.30;;;;;;;;;;5013985;28;20406;-73
2021/08/10 14:09:05;;;;;;;2.30;1.60;;;;;;;;;;5013963;28;20026;-76
2021/08/10 14:11:31;;;;;;;4.22;1.77;;;;;;;;;;5014459;28;20022;-74
2021/08/10 14:13:57;;;;;;;2.85;1.15;;;;;;;;;;5012678;28;20057;-77
2021/08/10 14:16:24;;;;;;;2.67;1.63;;;;;;;;;;5013827;28;20040;-76
2021/08/10 14:18:50;;;;;;;1.50;1.40;;;;;;;;;;5013383;28;20382;-74
2021/08/10 14:21:17;;;;;;;2.80;1.45;;;;;;;;;;5013810;28;20022;-75
2021/08/10 14:23:43;;;;;;;2.80;1.60;;;;;;;;;;5014264;28;20104;-75
2021/08/10 14:26:10;;;;;;;2.97;1.50;;;;;;;;;;5013736;28;20057;-74
2021/08/10 14:28:37;;;;;;;1.98;1.60;;;;;;;;;;5013916;28;20036;-75
2021/08/10 14:31:05;;;;;;;3.40;1.73;;;;;;;;;;5012403;28;20025;-73
2021/08/10 14:33:31;;;;;;;2.83;2.03;;;;;;;;;;5013609;28;20394;-74
2021/08/10 14:35:57;;;;;;;1.55;1.40;;;;;;;;;;5013609;28;20026;-75
2021/08/10 14:38:23;;;;;;;1.80;1.55;;;;;;;;;;5013872;28;20477;-76
2021/08/10 14:40:49;;;;;;;2.38;1.67;;;;;;;;;;5013571;28;20024;-75
2021/08/10 14:43:15;;;;;;;10.20;2.00;;;;;;;;;;5014089;28;20026;-75
2021/08/10 14:45:41;;;;;;;2.53;1.75;;;;;;;;;;5014040;28;20026;-75